KCSV/CSV METAR and TAF weather

Enter ICAO airport designator
Station Type Date Time Source
KCSV METAR 2018/07/21 22:53 UTC NOAA

KCSV 212253Z AUTO 29008KT 10SM FEW065 26/17 A2984 RMK AO2 SLP086 T02560172


Station Type Date Time Source
KCSV Decoded METAR 2018/07/21 22:53 UTC NOAA

CROSSVILLE MEMORIAL AIRPORT , TN, United States (KCSV) 35-57N 85-05W 570M
Jul 21, 2018 - 06:53 PM EDT / 2018.07.21 2253 UTC
Wind: from the WNW (290 degrees) at 9 MPH (8 KT):0
Visibility: 10 mile(s):0
Sky conditions: mostly clear
Temperature: 78.1 F (25.6 C)
Dew Point: 63.0 F (17.2 C)
Relative Humidity: 59%
Pressure (altimeter): 29.84 in. Hg (1010 hPa)
ob: KCSV 212253Z AUTO 29008KT 10SM FEW065 26/17 A2984 RMK AO2 SLP086 T02560172
cycle: 23

Station Type Date Time Source
KCSV TAF 2018/07/21 18:36 UTC NOAA

TAF KCSV 211733Z 2118/2218 29010G18KT P6SM BKN035
FM212000 29009G18KT P6SM VCTS BKN040CB
FM220200 29007KT P6SM SCT060
FM220600 26004KT 6SM BR VCSH BKN020
FM220900 29005KT 4SM BR VCSH BKN009
FM221400 29009KT P6SM VCTS BKN025CB


Example: see airport list